キャンベラ の空港の天気 - METARとTAF

キャンベラ国際空港 ( YSCB / CBR ) - オーストラリア オーストラリア首都特別地域キャンベラ
飛行場実況気象(Metar)
観測時間08/14 06:00 AEST (08/13 20:00 UTC)
風向・風速北北西 6m/s
視程10km以上
天気現象
全天の8割程度の雲 雲底高度 1040m
全天を覆う雲 雲底高度 1190m
気温6℃
湿度87%
気圧1007hPa
METARYSCB 132000Z AUTO 33012KT 9999 // BKN034 OVC039 06/04 Q1007
過去の天気等 Google飛行場航空写真 Wunderground天気予報

過去48時間のMETAR

飛行場予報(TAF)
発表時間: 8/14 06:04 AEST (8/13 20:04 UTC)
予報対象時間: 14日7時 AEST ~ 15日4時 AEST
風向・風速北北西 5m/s
視程10km以上
全天の4割程度の雲 雲底高度 300m
全天の8割程度の雲 雲底高度 910m
14日9時 AEST ~ 14日10時 AEST に徐々に
風向・風速西北西 8m/s 瞬間風速 13m/s
視程10km以上
天気現象弱いしゅう雨
全天の8割程度の雲 雲底高度 910m
14日17時 AEST から
風向・風速西北西 6m/s
視程10km以上
天気現象運行に影響にある天気現象が終了
全天の4割程度の雲 雲底高度 1220m
15日0時 AEST から
風向・風速西北西 6m/s
視程10km以上
少しの雲 雲底高度 300m
全天の4割程度の雲 雲底高度 760m
14日7時 AEST ~ 14日8時 AEST に一時的に
視程10km以上
全天の8割程度の雲 雲底高度 300m
TAF YSCB 132004Z 1321/1418 33010KT 9999 SCT010 BKN030
BECMG 1323/1400 30016G26KT 9999 -SHRA BKN030
FM140700 30012KT 9999 NSW SCT040
FM141400 30012KT 9999 FEW010 SCT025
TEMPO 1321/1322 9999 BKN010